Time;durP1;ratioP1;P1;durP2;ratioP2;P2;SDS_P1;SDS_P2;PMS_P1;PMS_P2;Temp;Humidity;BMP_temperature;BMP_pressure;BME280_temperature;BME280_humidity;BME280_pressure;Samples;Min_cycle;Max_cycle;Signal;HPM_P1;HPM_P2
2023/03/04 00:01:11;;;;;;;10.35;6.05;;;;;;;-13.39;68.20;101550.41;4903377;28;20128;-58
2023/03/04 00:03:42;;;;;;;8.70;6.15;;;;;;;-13.27;68.71;101545.72;4905566;28;20436;-58
2023/03/04 00:06:13;;;;;;;15.68;6.15;;;;;;;-13.25;69.06;101541.69;4912585;28;20055;-60
2023/03/04 00:08:45;;;;;;;8.43;4.63;;;;;;;-13.08;69.66;101541.72;4913155;28;20143;-58
2023/03/04 00:11:15;;;;;;;8.65;4.38;;;;;;;-12.88;69.96;101536.09;4916571;28;20072;-60
2023/03/04 00:13:46;;;;;;;10.23;5.20;;;;;;;-12.96;69.84;101521.88;4913444;28;20056;-58
2023/03/04 00:16:17;;;;;;;9.95;5.32;;;;;;;-12.82;70.06;101535.81;4913039;28;20143;-58
2023/03/04 00:18:50;;;;;;;8.35;5.10;;;;;;;-12.60;70.05;101531.22;4913760;28;20446;-61
2023/03/04 00:21:23;;;;;;;10.30;5.38;;;;;;;-12.36;70.08;101520.06;4898857;28;20131;-59
2023/03/04 00:23:55;;;;;;;8.23;5.07;;;;;;;-12.07;69.75;101529.47;4907447;28;20055;-60
2023/03/04 00:26:25;;;;;;;8.70;5.03;;;;;;;-12.02;69.11;101525.75;4909817;28;20151;-59
2023/03/04 00:28:56;;;;;;;10.32;5.13;;;;;;;-11.94;69.29;101527.34;4905362;28;20151;-61
2023/03/04 00:31:27;;;;;;;8.10;4.47;;;;;;;-11.78;69.46;101520.44;4900970;28;20175;-58
2023/03/04 00:33:57;;;;;;;8.98;4.90;;;;;;;-11.57;68.81;101515.59;4902534;28;20052;-60
2023/03/04 00:36:28;;;;;;;8.60;4.72;;;;;;;-11.44;68.23;101518.47;4902011;28;20734;-61
2023/03/04 00:39:00;;;;;;;9.90;5.22;;;;;;;-11.15;68.15;101517.72;4897256;28;20450;-59
2023/03/04 00:41:30;;;;;;;9.60;5.68;;;;;;;-11.13;66.56;101521.25;4886206;28;20053;-59
2023/03/04 00:44:01;;;;;;;8.85;4.05;;;;;;;-11.17;66.36;101521.75;4894378;28;20892;-59
2023/03/04 00:46:32;;;;;;;10.07;4.53;;;;;;;-11.10;66.15;101506.41;4887640;28;20059;-61
2023/03/04 00:49:02;;;;;;;13.55;4.95;;;;;;;-10.94;66.36;101509.53;4891937;28;20063;-59
2023/03/04 00:51:33;;;;;;;9.63;5.15;;;;;;;-10.66;66.27;101511.97;4891949;28;20131;-59
2023/03/04 00:54:05;;;;;;;8.05;4.40;;;;;;;-10.66;66.30;101517.03;4890977;28;20064;-61
2023/03/04 00:56:36;;;;;;;9.77;4.65;;;;;;;-10.68;66.12;101513.50;4907662;28;20117;-61
2023/03/04 00:59:06;;;;;;;9.32;4.40;;;;;;;-10.53;66.44;101519.91;4897324;28;20049;-62
2023/03/04 01:01:37;;;;;;;5.95;3.88;;;;;;;-10.44;66.49;101490.38;4914407;28;20155;-63
2023/03/04 01:04:07;;;;;;;16.75;4.80;;;;;;;-10.03;66.38;101520.84;4902899;28;20048;-60
2023/03/04 01:06:47;;;;;;;10.07;4.60;;;;;;;-9.82;66.57;101520.91;4917478;28;20064;-62
2023/03/04 01:09:19;;;;;;;5.50;4.18;;;;;;;-9.36;66.25;101519.69;4903366;28;20052;-67
2023/03/04 01:11:50;;;;;;;8.27;4.55;;;;;;;-8.83;65.98;101515.63;4903211;28;20071;-63
2023/03/04 01:14:21;;;;;;;6.95;4.35;;;;;;;-8.32;65.27;101507.84;4900149;28;20551;-63
2023/03/04 01:16:51;;;;;;;7.03;3.95;;;;;;;-8.00;64.56;101511.16;4899297;28;20056;-62
2023/03/04 01:19:22;;;;;;;5.90;4.22;;;;;;;-7.72;63.95;101509.09;4902157;28;20056;-63
2023/03/04 01:21:53;;;;;;;9.40;4.50;;;;;;;-7.41;63.61;101492.88;4901416;28;20147;-61
2023/03/04 01:24:26;;;;;;;8.57;5.07;;;;;;;-7.22;62.38;101494.25;4901839;28;20080;-62
2023/03/04 01:26:56;;;;;;;10.05;4.80;;;;;;;-7.52;62.45;101448.00;4899823;28;20049;-64
2023/03/04 01:29:27;;;;;;;11.48;4.40;;;;;;;-7.05;62.54;101486.22;4904865;28;20051;-61
2023/03/04 01:31:58;;;;;;;8.27;4.90;;;;;;;-6.78;62.35;101448.34;4901435;28;20115;-63
2023/03/04 01:34:29;;;;;;;7.88;4.45;;;;;;;-6.72;61.03;101459.81;4913731;28;20116;-62
2023/03/04 01:36:59;;;;;;;9.80;4.32;;;;;;;-6.71;61.78;101481.06;4905198;28;20054;-64
2023/03/04 01:39:50;;;;;;;25.73;9.13;;;;;;;-6.39;62.40;101479.94;4899473;28;20063;-68
2023/03/04 01:42:23;;;;;;;14.95;6.43;;;;;;;-6.11;61.66;101472.59;4887682;28;20059;-67
2023/03/04 01:44:55;;;;;;;17.95;7.72;;;;;;;-6.16;61.92;101474.81;4909245;28;20059;-68
2023/03/04 01:47:28;;;;;;;12.95;6.65;;;;;;;-5.94;60.96;101471.22;4907793;28;20509;-65
2023/03/04 01:50:02;;;;;;;16.13;5.63;;;;;;;-5.83;59.71;101457.53;4898296;28;20056;-65
2023/03/04 01:52:32;;;;;;;12.57;5.75;;;;;;;-5.54;59.05;101469.72;4908296;28;20056;-66
2023/03/04 01:55:12;;;;;;;13.50;5.93;;;;;;;-5.22;58.83;101464.22;4906628;28;20059;-66
2023/03/04 01:57:43;;;;;;;27.70;10.83;;;;;;;-5.01;57.57;101463.88;4895209;28;20143;-68
2023/03/04 02:00:24;;;;;;;38.83;11.25;;;;;;;-5.03;57.28;101439.94;4908672;28;20291;-69
2023/03/04 02:02:58;;;;;;;38.58;13.68;;;;;;;-4.80;56.74;101443.97;4893457;28;20076;-68
2023/03/04 02:05:30;;;;;;;27.80;9.43;;;;;;;-4.56;55.82;101470.16;4902628;28;20485;-68
2023/03/04 02:08:02;;;;;;;22.88;8.50;;;;;;;-4.61;55.30;101474.09;4911895;28;20048;-66
2023/03/04 02:10:34;;;;;;;15.13;6.68;;;;;;;-4.48;55.84;101458.78;4909922;28;20056;-64
2023/03/04 02:13:05;;;;;;;16.20;7.05;;;;;;;-4.39;54.94;101469.56;4905843;28;20140;-65
2023/03/04 02:15:36;;;;;;;18.67;7.85;;;;;;;-4.56;55.77;101434.47;4903843;28;20058;-67
2023/03/04 02:18:16;;;;;;;17.67;7.32;;;;;;;-4.39;54.89;101449.16;4909122;28;20225;-63
2023/03/04 02:20:57;;;;;;;20.75;8.10;;;;;;;-4.28;55.59;101442.16;4904087;28;20495;-64
2023/03/04 02:23:36;;;;;;;24.10;8.35;;;;;;;-3.81;54.99;101451.84;4895282;28;20823;-67
2023/03/04 02:26:19;;;;;;;46.88;14.98;;;;;;;-3.58;53.63;101445.56;4906376;28;20102;-61
2023/03/04 02:28:57;;;;;;;33.80;12.32;;;;;;;-3.53;52.68;101454.38;4895664;28;20045;-61
2023/03/04 02:31:31;;;;;;;43.10;14.23;;;;;;;-3.58;52.00;101445.56;4907524;28;20049;-66
2023/03/04 02:34:08;;;;;;;46.15;15.70;;;;;;;-3.72;52.38;101431.06;4903998;28;20411;-69
2023/03/04 02:36:39;;;;;;;30.80;13.05;;;;;;;-4.06;53.67;101372.03;4900501;28;21491;-71
2023/03/04 02:39:15;;;;;;;24.45;10.02;;;;;;;-3.37;55.03;101424.63;4907721;28;20080;-66
2023/03/04 02:41:48;;;;;;;24.35;9.85;;;;;;;-3.44;53.19;101361.16;4907425;28;20060;-69
2023/03/04 02:44:21;;;;;;;20.25;9.45;;;;;;;-2.85;52.73;101437.84;4906187;28;20045;-67
2023/03/04 02:46:52;;;;;;;15.73;6.43;;;;;;;-3.44;52.10;101330.50;4905676;28;20052;-68
2023/03/04 02:49:24;;;;;;;23.23;8.88;;;;;;;-2.73;52.41;101418.06;4904583;28;20066;-64
2023/03/04 02:52:01;;;;;;;25.45;9.95;;;;;;;-2.52;52.52;101414.91;4899178;28;21892;-71
2023/03/04 02:54:32;;;;;;;34.90;12.43;;;;;;;-2.53;52.34;101372.22;4886088;28;20475;-67
2023/03/04 02:57:07;;;;;;;30.85;10.10;;;;;;;-2.10;51.47;101405.25;4901732;28;20136;-69
2023/03/04 02:59:38;;;;;;;31.05;12.02;;;;;;;-2.36;52.00;101311.72;4905628;28;20056;-72
2023/03/04 03:02:09;;;;;;;29.52;10.50;;;;;;;-1.95;51.56;101352.25;4901594;28;20061;-73
2023/03/04 03:04:41;;;;;;;26.52;8.85;;;;;;;-1.43;50.45;101395.91;4898248;28;20735;-66
2023/03/04 03:07:12;;;;;;;22.60;8.10;;;;;;;-1.39;50.03;101392.69;4902458;28;20129;-73
2023/03/04 03:09:42;;;;;;;22.17;9.10;;;;;;;-1.29;49.81;101395.72;4903955;28;20506;-73
2023/03/04 03:12:14;;;;;;;22.23;9.38;;;;;;;-1.16;49.26;101395.53;4902284;28;20184;-70
2023/03/04 03:14:45;;;;;;;19.08;8.27;;;;;;;-1.18;49.60;101356.09;4903786;28;20052;-71
2023/03/04 03:17:15;;;;;;;18.85;8.57;;;;;;;-0.74;51.20;101380.44;4904627;28;20052;-71
2023/03/04 03:19:46;;;;;;;20.63;8.52;;;;;;;-0.59;49.71;101376.03;4903307;28;20144;-71
2023/03/04 03:22:17;;;;;;;16.70;7.50;;;;;;;-0.79;48.29;101376.78;4901514;28;20052;-67
2023/03/04 03:24:47;;;;;;;17.83;8.00;;;;;;;-0.67;48.49;101379.94;4900202;28;20052;-72
2023/03/04 03:27:19;;;;;;;16.05;7.47;;;;;;;-0.69;47.92;101381.53;4904425;28;20125;-76
2023/03/04 03:29:50;;;;;;;13.23;6.80;;;;;;;-0.68;48.73;101365.31;4903866;28;20049;-65
2023/03/04 03:32:21;;;;;;;17.63;7.20;;;;;;;-0.50;48.43;101370.41;4900949;28;20434;-69
2023/03/04 03:34:52;;;;;;;17.20;7.38;;;;;;;-0.38;48.27;101360.72;4899619;28;20064;-72
2023/03/04 03:37:22;;;;;;;45.25;15.40;;;;;;;-0.36;47.66;101358.22;4903562;28;20737;-72
2023/03/04 03:39:53;;;;;;;32.72;11.77;;;;;;;-0.38;45.97;101364.97;4899755;28;20052;-69
2023/03/04 03:42:25;;;;;;;28.85;9.90;;;;;;;-0.19;47.27;101352.16;4900156;28;20068;-69
2023/03/04 03:44:56;;;;;;;15.60;6.85;;;;;;;-0.09;47.63;101364.59;4903923;28;20141;-69
2023/03/04 03:47:26;;;;;;;8.13;4.60;;;;;;;0.21;46.04;101353.91;4905287;28;20071;-67
2023/03/04 03:49:57;;;;;;;11.40;5.45;;;;;;;0.47;45.28;101359.28;4896621;28;20147;-69
2023/03/04 03:52:31;;;;;;;12.85;5.50;;;;;;;0.60;46.03;101366.66;4897861;28;20046;-67
2023/03/04 03:55:02;;;;;;;12.55;6.47;;;;;;;0.63;44.71;101353.97;4903931;28;20049;-69
2023/03/04 03:57:34;;;;;;;12.50;6.10;;;;;;;0.59;45.48;101334.06;4906381;28;20052;-68
2023/03/04 04:00:06;;;;;;;10.23;4.53;;;;;;;0.75;44.22;101353.56;4906839;28;20507;-69
2023/03/04 04:02:37;;;;;;;11.55;5.10;;;;;;;0.75;43.73;101354.47;4911234;28;20086;-69
2023/03/04 04:05:09;;;;;;;14.27;5.18;;;;;;;0.59;44.04;101337.50;4906173;28;20155;-70
2023/03/04 04:07:40;;;;;;;13.80;4.22;;;;;;;0.23;44.08;101326.59;4896790;28;21776;-69
2023/03/04 04:10:12;;;;;;;11.15;5.35;;;;;;;-0.19;44.81;101326.47;4909872;28;20056;-69
2023/03/04 04:12:44;;;;;;;12.30;6.28;;;;;;;-0.16;46.19;101331.75;4900110;28;20049;-68
2023/03/04 04:15:15;;;;;;;15.07;8.65;;;;;;;0.23;46.45;101325.72;4901315;28;20052;-65
2023/03/04 04:17:46;;;;;;;15.65;7.80;;;;;;;0.29;46.37;101319.13;4906787;28;20048;-67
2023/03/04 04:20:16;;;;;;;22.45;12.10;;;;;;;0.16;45.92;101314.28;4910649;28;20060;-69
2023/03/04 04:22:47;;;;;;;11.32;6.10;;;;;;;0.13;45.63;101321.88;4898327;28;20055;-64
2023/03/04 04:25:18;;;;;;;11.75;6.43;;;;;;;-0.10;44.70;101311.47;4907522;28;20544;-72
2023/03/04 04:27:50;;;;;;;9.32;5.32;;;;;;;-0.04;46.03;101311.72;4904674;28;20880;-69
2023/03/04 04:30:21;;;;;;;12.88;6.75;;;;;;;-0.20;45.46;101299.03;4899057;28;20136;-65
2023/03/04 04:32:52;;;;;;;10.00;5.57;;;;;;;-0.21;45.75;101297.25;4904547;28;20058;-66
2023/03/04 04:35:22;;;;;;;10.70;4.82;;;;;;;-0.05;47.35;101309.97;4906223;28;20049;-67
2023/03/04 04:37:53;;;;;;;12.65;7.35;;;;;;;0.21;46.68;101297.34;4905700;28;20053;-69
2023/03/04 04:40:24;;;;;;;9.65;5.30;;;;;;;-0.03;45.11;101256.94;4908759;28;20183;-66
2023/03/04 04:42:56;;;;;;;6.95;4.18;;;;;;;0.31;45.38;101289.22;4906346;28;20122;-69
2023/03/04 04:45:28;;;;;;;8.73;4.78;;;;;;;0.23;46.13;101290.59;4905207;28;20052;-64
2023/03/04 04:47:59;;;;;;;10.60;4.75;;;;;;;0.20;46.03;101281.06;4913833;28;20070;-67
2023/03/04 04:50:29;;;;;;;8.90;4.72;;;;;;;0.24;45.39;101287.19;4907035;28;20049;-66
2023/03/04 04:53:01;;;;;;;6.25;4.50;;;;;;;0.23;46.23;101289.72;4905455;28;20542;-67
2023/03/04 04:55:32;;;;;;;8.05;4.90;;;;;;;0.17;45.36;101290.31;4903080;28;20053;-68
2023/03/04 04:58:07;;;;;;;9.80;5.47;;;;;;;0.12;45.66;101286.69;4897014;28;20084;-69
2023/03/04 05:00:37;;;;;;;7.85;4.72;;;;;;;0.09;45.21;101286.56;4902504;28;20052;-69
2023/03/04 05:03:08;;;;;;;9.95;5.05;;;;;;;0.28;45.59;101277.94;4904302;28;20900;-65
2023/03/04 05:05:39;;;;;;;9.27;4.78;;;;;;;0.66;46.04;101276.91;4913535;28;20052;-65
2023/03/04 05:08:09;;;;;;;7.78;4.68;;;;;;;0.96;44.70;101292.69;4911456;28;20049;-68
2023/03/04 05:10:40;;;;;;;11.77;5.20;;;;;;;1.01;44.56;101290.28;4904347;28;21058;-66
2023/03/04 05:13:12;;;;;;;8.15;4.80;;;;;;;0.97;44.21;101288.41;4908463;28;20078;-67
2023/03/04 05:15:42;;;;;;;7.95;4.85;;;;;;;0.78;43.71;101297.13;4896229;28;20102;-64
2023/03/04 05:18:13;;;;;;;10.32;4.80;;;;;;;0.64;46.08;101304.25;4903869;28;20053;-67
2023/03/04 05:20:44;;;;;;;10.15;4.97;;;;;;;0.36;44.57;101298.00;4903817;28;20502;-69
2023/03/04 05:23:15;;;;;;;10.25;5.13;;;;;;;0.13;44.64;101291.91;4905815;28;20048;-68
2023/03/04 05:25:45;;;;;;;8.50;4.90;;;;;;;0.02;44.17;101295.69;4902489;28;20722;-66
2023/03/04 05:28:18;;;;;;;13.60;5.47;;;;;;;-0.20;45.06;101241.63;4901710;28;20053;-65
2023/03/04 05:30:49;;;;;;;12.10;5.88;;;;;;;-0.03;45.49;101303.19;4903108;28;20049;-71
2023/03/04 05:33:20;;;;;;;8.90;5.55;;;;;;;-0.10;45.55;101275.50;4898940;28;20061;-67
2023/03/04 05:35:51;;;;;;;11.00;5.88;;;;;;;0.09;45.55;101295.13;4907751;28;20048;-68
2023/03/04 05:38:24;;;;;;;10.88;6.53;;;;;;;0.29;45.26;101308.84;4904044;28;20556;-66
2023/03/04 05:40:59;;;;;;;8.73;5.47;;;;;;;0.35;45.83;101293.69;4902930;28;20564;-68
2023/03/04 05:43:34;;;;;;;10.63;6.10;;;;;;;0.38;45.26;101286.09;4894792;28;20049;-63
2023/03/04 05:46:05;;;;;;;15.68;7.13;;;;;;;0.64;45.84;101293.97;4903237;28;20137;-67
2023/03/04 05:48:39;;;;;;;13.95;6.85;;;;;;;0.71;45.57;101293.41;4903896;28;20056;-68
2023/03/04 05:51:10;;;;;;;14.48;7.15;;;;;;;0.63;43.43;101295.69;4891697;28;20068;-67
2023/03/04 05:53:42;;;;;;;20.45;9.13;;;;;;;-0.10;40.89;101254.94;4905938;28;20139;-65
2023/03/04 05:56:15;;;;;;;12.95;6.65;;;;;;;-0.03;41.66;101300.63;4904629;28;20056;-67
2023/03/04 05:58:47;;;;;;;12.50;6.57;;;;;;;0.02;42.61;101295.69;4907765;28;20060;-66
2023/03/04 06:01:18;;;;;;;9.65;5.05;;;;;;;-0.03;42.85;101308.31;4900179;28;20560;-70
2023/03/04 06:03:49;;;;;;;10.10;5.78;;;;;;;-0.22;43.71;101298.09;4912317;28;20114;-72
2023/03/04 06:06:19;;;;;;;12.40;5.95;;;;;;;-0.35;44.37;101288.06;4905612;28;20053;-64
2023/03/04 06:08:51;;;;;;;8.52;5.78;;;;;;;-0.36;44.08;101291.47;4906714;28;20049;-65
2023/03/04 06:11:21;;;;;;;10.18;5.50;;;;;;;-0.54;44.26;101291.53;4904450;28;20539;-66
2023/03/04 06:13:53;;;;;;;8.63;4.90;;;;;;;-0.63;45.17;101291.97;4901905;28;20052;-72
2023/03/04 06:16:27;;;;;;;8.27;5.07;;;;;;;-0.75;45.31;101281.16;4907407;28;20048;-69
2023/03/04 06:18:58;;;;;;;10.82;5.53;;;;;;;-1.00;45.62;101244.13;4899015;28;20318;-63
2023/03/04 06:21:29;;;;;;;9.25;4.70;;;;;;;-0.85;45.64;101287.53;4910460;28;20109;-72
2023/03/04 06:23:59;;;;;;;11.73;5.00;;;;;;;-0.93;46.21;101286.31;4905428;28;20053;-64
2023/03/04 06:26:30;;;;;;;8.35;4.88;;;;;;;-1.02;44.86;101286.78;4904422;28;20062;-70
2023/03/04 06:29:02;;;;;;;9.98;6.00;;;;;;;-1.25;44.13;101292.50;4907976;28;20044;-72
2023/03/04 06:31:32;;;;;;;11.05;6.60;;;;;;;-1.43;44.69;101293.34;4911047;28;20129;-70
2023/03/04 06:34:03;;;;;;;10.32;5.90;;;;;;;-1.49;44.19;101307.59;4910050;28;20068;-71
2023/03/04 06:36:34;;;;;;;9.75;5.40;;;;;;;-1.48;44.99;101299.94;4904580;28;20291;-68
2023/03/04 06:39:05;;;;;;;8.50;4.97;;;;;;;-1.62;44.63;101306.06;4903075;28;20053;-67
2023/03/04 06:41:36;;;;;;;8.77;5.22;;;;;;;-1.69;46.38;101306.59;4908683;28;20460;-66
2023/03/04 06:44:09;;;;;;;17.90;7.60;;;;;;;-1.77;46.94;101301.09;4906505;28;20847;-66
2023/03/04 06:46:39;;;;;;;14.35;6.28;;;;;;;-1.85;46.00;101303.25;4897748;28;20523;-71
2023/03/04 06:49:10;;;;;;;13.05;6.22;;;;;;;-1.95;45.81;101308.69;4911932;28;20087;-66
2023/03/04 06:51:41;;;;;;;14.73;6.63;;;;;;;-1.96;46.37;101309.53;4907514;28;20063;-71
2023/03/04 06:54:12;;;;;;;10.00;5.60;;;;;;;-2.31;46.24;101249.69;4906376;28;20616;-70
2023/03/04 06:56:42;;;;;;;7.07;4.93;;;;;;;-2.12;46.04;101286.47;4906074;28;20516;-63
2023/03/04 06:59:15;;;;;;;9.20;5.10;;;;;;;-2.15;46.61;101311.94;4912465;28;20056;-64
2023/03/04 07:01:46;;;;;;;10.73;5.07;;;;;;;-2.21;46.92;101312.50;4902111;28;20127;-70
2023/03/04 07:04:16;;;;;;;8.73;4.80;;;;;;;-2.24;46.79;101308.09;4906396;28;20055;-63
2023/03/04 07:06:47;;;;;;;7.85;4.78;;;;;;;-3.27;46.32;101150.88;4903960;28;20147;-64
2023/03/04 07:09:18;;;;;;;11.32;6.13;;;;;;;-2.54;47.37;101292.03;4906296;28;23471;-71
2023/03/04 07:11:49;;;;;;;10.68;5.60;;;;;;;-2.50;47.00;101308.41;4903530;28;20586;-75
2023/03/04 07:14:21;;;;;;;11.77;6.88;;;;;;;-2.91;48.55;101248.25;4910001;28;20161;-73
2023/03/04 07:16:52;;;;;;;9.98;5.13;;;;;;;-2.47;49.20;101311.13;4913201;28;20064;-66
2023/03/04 07:19:23;;;;;;;21.70;8.13;;;;;;;-2.48;48.98;101304.25;4908245;28;20055;-65
2023/03/04 07:21:54;;;;;;;18.92;7.95;;;;;;;-2.50;49.62;101298.16;4904085;28;20135;-65
2023/03/04 07:24:24;;;;;;;13.98;6.45;;;;;;;-2.61;49.54;101290.81;4910016;28;20515;-65
2023/03/04 07:26:55;;;;;;;9.35;5.45;;;;;;;-2.64;49.72;101306.00;4902520;28;20055;-65
2023/03/04 07:29:27;;;;;;;7.40;4.80;;;;;;;-2.75;49.50;101296.84;4907933;28;20048;-67
2023/03/04 07:31:58;;;;;;;10.57;5.78;;;;;;;-2.74;50.63;101300.31;4907509;28;20975;-63
2023/03/04 07:34:29;;;;;;;12.25;6.85;;;;;;;-2.81;50.58;101306.78;4914722;28;21641;-66
2023/03/04 07:36:59;;;;;;;9.80;6.00;;;;;;;-3.27;50.48;101248.00;4903105;28;20050;-63
2023/03/04 07:39:30;;;;;;;8.38;4.97;;;;;;;-3.08;50.49;101311.25;4902026;28;20068;-65
2023/03/04 07:42:01;;;;;;;10.07;5.68;;;;;;;-3.18;51.06;101314.97;4909376;28;20044;-64
2023/03/04 07:44:33;;;;;;;11.63;5.90;;;;;;;-3.30;50.96;101309.16;4906370;28;20049;-67
2023/03/04 07:47:04;;;;;;;9.48;5.18;;;;;;;-3.43;50.91;101316.94;4906615;28;20121;-69
2023/03/04 07:49:34;;;;;;;11.73;5.85;;;;;;;-3.56;50.97;101303.47;4893718;28;20040;-70
2023/03/04 07:52:06;;;;;;;12.63;5.78;;;;;;;-3.93;51.27;101287.69;4910759;28;20056;-64
2023/03/04 07:54:36;;;;;;;16.65;7.38;;;;;;;-3.78;52.23;101309.00;4906615;28;20115;-70
2023/03/04 07:57:07;;;;;;;23.02;8.30;;;;;;;-4.34;52.52;101253.84;4904541;28;20059;-69
2023/03/04 07:59:39;;;;;;;27.33;9.05;;;;;;;-3.96;52.80;101308.81;4906317;28;20052;-65
2023/03/04 08:02:11;;;;;;;14.85;6.55;;;;;;;-4.03;53.23;101301.59;4896256;28;20138;-70
2023/03/04 08:04:42;;;;;;;17.15;8.48;;;;;;;-4.02;53.18;101313.59;4906189;28;20135;-71
2023/03/04 08:07:12;;;;;;;22.50;8.63;;;;;;;-4.09;53.22;101310.56;4909444;28;20166;-70
2023/03/04 08:09:52;;;;;;;28.05;10.70;;;;;;;-4.18;53.42;101308.34;4907864;28;20141;-65
2023/03/04 08:12:23;;;;;;;23.25;10.85;;;;;;;-4.28;53.35;101313.69;4900268;28;20135;-64
2023/03/04 08:14:56;;;;;;;26.33;13.48;;;;;;;-5.05;54.35;101191.72;4903806;28;20045;-66
2023/03/04 08:17:28;;;;;;;16.98;9.48;;;;;;;-4.57;54.84;101305.13;4905238;28;20059;-64
2023/03/04 08:19:59;;;;;;;16.60;10.68;;;;;;;-4.72;54.94;101304.19;4902998;28;20064;-67
2023/03/04 08:22:29;;;;;;;15.85;9.07;;;;;;;-4.85;55.38;101303.44;4909016;28;20102;-63
2023/03/04 08:25:00;;;;;;;10.57;5.63;;;;;;;-5.06;55.61;101286.81;4901283;28;20061;-65
2023/03/04 08:27:30;;;;;;;12.10;5.90;;;;;;;-4.99;56.43;101299.19;4919128;28;20427;-69
2023/03/04 08:30:02;;;;;;;15.55;7.03;;;;;;;-4.97;56.86;101292.47;4903817;28;20056;-64
2023/03/04 08:32:33;;;;;;;15.02;6.93;;;;;;;-5.03;57.27;101282.78;4907777;28;20056;-68
2023/03/04 08:35:05;;;;;;;13.43;6.63;;;;;;;-4.96;58.62;101286.63;4905412;28;20056;-65
2023/03/04 08:37:35;;;;;;;11.27;6.70;;;;;;;-5.09;57.90;101291.72;4898816;28;20053;-65
2023/03/04 08:40:07;;;;;;;21.23;10.38;;;;;;;-5.27;57.48;101289.75;4909020;28;20063;-65
2023/03/04 08:42:39;;;;;;;21.23;9.77;;;;;;;-5.96;58.08;101182.69;4897442;28;22697;-70
2023/03/04 08:45:18;;;;;;;17.52;8.32;;;;;;;-5.43;57.74;101304.88;4893666;28;20889;-62
2023/03/04 08:47:55;;;;;;;19.17;8.23;;;;;;;-5.45;58.43;101291.13;4892163;28;20049;-66
2023/03/04 08:50:31;;;;;;;20.55;9.13;;;;;;;-5.36;59.79;101296.84;4904754;28;20151;-68
2023/03/04 08:53:03;;;;;;;22.67;9.90;;;;;;;-5.42;59.10;101284.59;4898113;28;20071;-68
2023/03/04 08:55:33;;;;;;;21.70;10.23;;;;;;;-5.50;58.32;101297.59;4896951;28;20141;-67
2023/03/04 08:58:07;;;;;;;19.73;10.00;;;;;;;-5.69;57.83;101301.50;4905046;28;20053;-65
2023/03/04 09:00:41;;;;;;;18.45;8.75;;;;;;;-5.78;58.63;101306.00;4903667;28;20364;-67
2023/03/04 09:03:13;;;;;;;19.77;9.15;;;;;;;-6.36;58.74;101225.84;4893538;28;20044;-71
2023/03/04 09:05:48;;;;;;;24.67;10.57;;;;;;;-6.01;59.31;101296.88;4905467;28;20139;-65
2023/03/04 09:08:20;;;;;;;24.80;12.70;;;;;;;-6.29;58.96;101268.69;4901491;28;20485;-64
2023/03/04 09:10:54;;;;;;;34.50;14.50;;;;;;;-6.05;59.45;101324.56;4904262;28;20123;-65
2023/03/04 09:13:26;;;;;;;30.75;12.25;;;;;;;-6.23;59.95;101309.81;4902522;28;20059;-65
2023/03/04 09:15:59;;;;;;;22.50;9.95;;;;;;;-6.13;61.33;101327.47;4908177;28;20057;-68
2023/03/04 09:18:31;;;;;;;22.27;10.90;;;;;;;-6.15;61.04;101334.09;4903510;28;20075;-64
2023/03/04 09:21:02;;;;;;;24.25;10.10;;;;;;;-6.22;60.91;101331.91;4906247;28;20195;-66
2023/03/04 09:23:37;;;;;;;20.73;9.63;;;;;;;-6.28;61.04;101331.50;4901799;28;20525;-67
2023/03/04 09:26:21;;;;;;;19.05;9.85;;;;;;;-6.33;61.61;101332.88;4904496;28;20067;-65
2023/03/04 09:28:54;;;;;;;20.48;9.60;;;;;;;-6.38;61.04;101334.22;4893306;28;20052;-66
2023/03/04 09:31:30;;;;;;;25.30;10.57;;;;;;;-6.38;60.91;101354.56;4907145;28;20071;-65
2023/03/04 09:34:01;;;;;;;17.83;8.55;;;;;;;-6.43;60.58;101366.06;4894956;28;20048;-68
2023/03/04 09:36:31;;;;;;;24.25;10.40;;;;;;;-6.47;60.69;101364.09;4901607;28;20049;-64
2023/03/04 09:39:07;;;;;;;19.20;7.53;;;;;;;-6.49;61.35;101365.63;4900047;28;20048;-66
2023/03/04 09:41:46;;;;;;;12.48;6.35;;;;;;;-6.48;61.92;101367.41;4904642;28;20114;-65
2023/03/04 09:44:23;;;;;;;15.80;7.72;;;;;;;-6.62;62.04;101334.25;4893379;28;20066;-64
2023/03/04 09:46:59;;;;;;;11.90;6.60;;;;;;;-6.52;61.78;101362.09;4891476;28;20140;-65
2023/03/04 09:49:31;;;;;;;14.93;6.90;;;;;;;-6.69;61.77;101342.22;4898246;28;20064;-64
2023/03/04 09:52:09;;;;;;;13.13;6.68;;;;;;;-7.14;61.95;101295.03;4899664;28;20406;-66
2023/03/04 09:55:06;;;;;;;13.93;7.40;;;;;;;-6.79;62.67;101360.16;4894538;28;20068;-67
2023/03/04 10:00:42;;;;;;;12.93;6.90;;;;;;;-6.85;63.37;101337.75;4881853;28;20076;-68
2023/03/04 10:03:22;;;;;;;11.65;6.43;;;;;;;-6.91;63.53;101338.97;4891585;28;20450;-70
2023/03/04 10:06:03;;;;;;;17.63;8.90;;;;;;;-6.93;64.10;101340.53;4898224;28;20052;-63
2023/03/04 10:08:41;;;;;;;18.65;8.70;;;;;;;-7.38;65.09;101249.34;4894010;28;20543;-68
2023/03/04 10:11:17;;;;;;;15.32;7.88;;;;;;;-6.79;66.18;101325.50;4902688;28;20117;-70
2023/03/04 10:14:21;;;;;;;15.38;7.60;;;;;;;-6.42;67.33;101322.06;4903941;28;20058;-66
2023/03/04 10:17:05;;;;;;;16.90;7.85;;;;;;;-6.20;67.73;101320.19;4895090;28;20053;-68
2023/03/04 10:19:55;;;;;;;15.45;8.02;;;;;;;-6.12;67.93;101303.78;4896896;28;20045;-65
2023/03/04 10:22:32;;;;;;;11.55;6.60;;;;;;;-6.04;67.78;101311.03;4897470;28;20052;-69
2023/03/04 10:25:18;;;;;;;13.98;7.13;;;;;;;-5.98;67.84;101332.69;4897803;28;20063;-64
2023/03/04 10:27:55;;;;;;;14.68;7.35;;;;;;;-5.95;67.75;101337.13;4907530;28;20156;-65
2023/03/04 10:30:38;;;;;;;14.43;8.30;;;;;;;-6.13;67.96;101286.75;4911448;28;20369;-65
2023/03/04 10:33:14;;;;;;;16.23;7.65;;;;;;;-6.05;67.34;101311.84;4897550;28;20057;-63
2023/03/04 10:35:49;;;;;;;19.67;9.20;;;;;;;-6.01;67.54;101317.22;4907844;28;20059;-64
2023/03/04 10:38:22;;;;;;;15.95;8.18;;;;;;;-5.92;67.54;101322.00;4901073;28;20755;-69
2023/03/04 10:40:53;;;;;;;11.88;6.72;;;;;;;-6.10;66.98;101312.41;4903804;28;20055;-66
2023/03/04 10:43:23;;;;;;;14.68;7.40;;;;;;;-5.99;67.54;101309.69;4910566;28;20052;-66
2023/03/04 10:46:00;;;;;;;11.93;7.03;;;;;;;-6.01;67.06;101301.09;4902898;28;20107;-66
2023/03/04 10:48:32;;;;;;;14.45;6.75;;;;;;;-6.19;67.39;101301.63;4899024;28;20083;-64
2023/03/04 10:51:19;;;;;;;15.20;6.93;;;;;;;-6.16;67.09;101317.09;4907254;28;20151;-63
2023/03/04 10:53:52;;;;;;;10.20;5.80;;;;;;;-6.42;67.07;101286.44;4900357;28;20127;-68
2023/03/04 10:56:41;;;;;;;14.45;6.68;;;;;;;-6.29;67.50;101314.47;4909021;28;20062;-64
2023/03/04 10:59:35;;;;;;;10.98;6.45;;;;;;;-6.22;67.62;101331.91;4896258;28;20052;-69
2023/03/04 11:02:25;;;;;;;15.85;6.93;;;;;;;-6.30;67.46;101328.84;4896204;28;20127;-63
2023/03/04 11:05:18;;;;;;;14.25;6.70;;;;;;;-6.39;67.32;101327.34;4895259;28;20056;-65
2023/03/04 11:08:05;;;;;;;18.17;7.47;;;;;;;-6.87;66.94;101280.84;4887025;28;20063;-69
2023/03/04 11:10:41;;;;;;;12.98;6.95;;;;;;;-6.80;66.97;101327.91;4899278;28;20690;-64
2023/03/04 11:13:18;;;;;;;13.38;7.50;;;;;;;-6.97;67.16;101335.22;4898617;28;20048;-70
2023/03/04 11:15:54;;;;;;;22.77;8.77;;;;;;;-7.30;66.66;101350.59;4896635;28;20073;-67
2023/03/04 11:18:39;;;;;;;20.48;8.65;;;;;;;-7.51;67.22;101338.09;4908425;28;20052;-67
2023/03/04 11:21:20;;;;;;;16.67;7.45;;;;;;;-7.73;67.23;101334.75;4894470;28;20462;-69
2023/03/04 11:24:05;;;;;;;13.77;6.68;;;;;;;-7.94;67.69;101319.69;4900417;28;20055;-64
2023/03/04 11:26:51;;;;;;;17.08;8.50;;;;;;;-8.70;68.37;101189.00;4896450;28;20060;-64
2023/03/04 11:29:25;;;;;;;20.48;9.55;;;;;;;-8.00;68.95;101309.09;4895517;28;20049;-64
2023/03/04 11:32:04;;;;;;;20.17;9.95;;;;;;;-8.02;69.26;101310.63;4905877;28;20135;-64
2023/03/04 11:34:42;;;;;;;18.10;8.52;;;;;;;-8.12;68.93;101313.25;4901632;28;20052;-63
2023/03/04 11:37:19;;;;;;;19.00;9.27;;;;;;;-8.64;69.57;101253.59;4899136;28;20056;-68
2023/03/04 11:40:48;;;;;;;19.42;7.78;;;;;;;-8.68;70.54;101250.81;4896931;28;20045;-66
2023/03/04 11:43:31;;;;;;;16.83;8.13;;;;;;;-8.29;70.83;101328.06;4897490;28;20069;-63
2023/03/04 11:46:34;;;;;;;19.98;9.70;;;;;;;-8.20;71.36;101329.56;4892620;28;20052;-63
2023/03/04 11:49:32;;;;;;;17.95;8.55;;;;;;;-8.53;71.22;101263.78;4908671;28;20048;-65
2023/03/04 11:52:18;;;;;;;16.77;8.10;;;;;;;-8.22;70.83;101323.47;4884379;28;20141;-66